Time;durP1;ratioP1;P1;durP2;ratioP2;P2;SDS_P1;SDS_P2;PMS_P1;PMS_P2;Temp;Humidity;BMP_temperature;BMP_pressure;BME280_temperature;BME280_humidity;BME280_pressure;Samples;Min_cycle;Max_cycle;Signal;HPM_P1;HPM_P2
2023/09/21 00:01:07;;;;;;;3.95;1.58;;;18.30;99.90;;;;;;5058153;28;20040;-82
2023/09/21 00:03:36;;;;;;;7.97;2.10;;;18.10;99.90;;;;;;5057789;28;20044;-82
2023/09/21 00:06:03;;;;;;;5.18;2.10;;;18.00;99.90;;;;;;5074418;28;20497;-81
2023/09/21 00:08:30;;;;;;;3.67;1.60;;;18.00;99.90;;;;;;5057810;28;20052;-82
2023/09/21 00:10:57;;;;;;;5.82;2.28;;;18.00;99.90;;;;;;5057683;28;20086;-82
2023/09/21 00:13:28;;;;;;;3.45;1.60;;;18.10;99.90;;;;;;5057978;28;20055;-82
2023/09/21 00:15:55;;;;;;;4.85;2.08;;;18.20;99.90;;;;;;5074119;28;20076;-82
2023/09/21 00:18:23;;;;;;;5.50;2.08;;;18.20;99.90;;;;;;5074461;28;20101;-82
2023/09/21 00:20:53;;;;;;;5.72;2.00;;;18.10;99.90;;;;;;5057730;28;20044;-82
2023/09/21 00:23:24;;;;;;;4.22;1.77;;;18.10;99.90;;;;;;5057516;28;20032;-82
2023/09/21 00:25:57;;;;;;;4.57;1.83;;;18.20;99.90;;;;;;5057608;28;20098;-82
2023/09/21 00:28:27;;;;;;;6.05;1.80;;;18.20;99.90;;;;;;5057267;28;20139;-82
2023/09/21 00:30:57;;;;;;;6.05;2.00;;;18.20;99.90;;;;;;5074344;28;20408;-82
2023/09/21 00:33:27;;;;;;;4.95;2.20;;;18.20;99.90;;;;;;5057532;28;20396;-82
2023/09/21 00:35:59;;;;;;;7.40;1.85;;;18.20;99.90;;;;;;5057012;28;20043;-81
2023/09/21 00:38:25;;;;;;;7.18;1.95;;;18.20;99.90;;;;;;5073887;28;20036;-82
2023/09/21 00:40:58;;;;;;;3.25;1.27;;;18.30;99.90;;;;;;5074085;28;20032;-82
2023/09/21 00:43:25;;;;;;;5.35;2.03;;;18.40;99.90;;;;;;5057372;28;20043;-82
2023/09/21 00:45:53;;;;;;;5.63;1.90;;;18.50;99.90;;;;;;5073626;28;20042;-82
2023/09/21 00:48:22;;;;;;;6.55;2.40;;;18.40;99.90;;;;;;5057011;28;20036;-82
2023/09/21 00:50:54;;;;;;;5.07;2.22;;;18.50;99.90;;;;;;5056854;28;20072;-82
2023/09/21 00:53:21;;;;;;;5.47;1.90;;;18.40;99.90;;;;;;5056982;28;20043;-82
2023/09/21 00:55:57;;;;;;;5.35;1.80;;;18.40;99.90;;;;;;5056434;28;20040;-82
2023/09/21 00:58:25;;;;;;;5.15;1.65;;;18.30;99.90;;;;;;5056881;28;20036;-82
2023/09/21 01:00:54;;;;;;;6.28;1.90;;;18.60;99.90;;;;;;5056953;28;20422;-82
2023/09/21 01:03:22;;;;;;;6.88;2.13;;;18.40;99.90;;;;;;5073339;28;20045;-81
2023/09/21 01:05:50;;;;;;;5.07;1.77;;;18.40;99.90;;;;;;5056574;28;20489;-81
2023/09/21 01:08:22;;;;;;;4.20;1.42;;;18.40;99.90;;;;;;5056652;28;20037;-81
2023/09/21 01:10:49;;;;;;;6.07;2.22;;;18.50;99.90;;;;;;5073201;28;20501;-81
2023/09/21 01:13:18;;;;;;;5.50;1.80;;;18.50;99.90;;;;;;5073177;28;20044;-81
2023/09/21 01:15:45;;;;;;;7.10;2.38;;;18.40;99.90;;;;;;5056228;28;20045;-81
2023/09/21 01:18:12;;;;;;;7.00;2.35;;;18.40;99.90;;;;;;5056440;28;20043;-80
2023/09/21 01:20:42;;;;;;;4.53;2.10;;;18.40;99.90;;;;;;5056531;28;20420;-81
2023/09/21 01:23:18;;;;;;;4.60;1.77;;;18.40;99.90;;;;;;5072885;28;20044;-81
2023/09/21 01:25:46;;;;;;;7.38;2.17;;;18.40;99.90;;;;;;5056476;28;20040;-80
2023/09/21 01:28:20;;;;;;;5.32;1.90;;;18.40;99.90;;;;;;5055991;28;20127;-80
2023/09/21 01:30:47;;;;;;;5.18;1.65;;;18.50;99.90;;;;;;5073002;28;20439;-81
2023/09/21 01:33:13;;;;;;;5.13;2.28;;;18.60;99.90;;;;;;5056131;28;20090;-82
2023/09/21 01:35:40;;;;;;;3.63;1.70;;;18.50;99.90;;;;;;5072520;28;20127;-80
2023/09/21 01:38:06;;;;;;;5.90;2.10;;;18.50;99.90;;;;;;5072702;28;20150;-81
2023/09/21 01:40:36;;;;;;;5.53;1.80;;;18.50;99.90;;;;;;5055896;28;20044;-80
2023/09/21 01:43:17;;;;;;;5.03;2.20;;;18.50;99.90;;;;;;5072613;28;20074;-81
2023/09/21 01:45:50;;;;;;;7.10;1.98;;;18.60;99.90;;;;;;5055830;28;20040;-81
2023/09/21 01:48:19;;;;;;;6.57;1.77;;;18.50;99.90;;;;;;5055850;28;20040;-81
2023/09/21 01:50:51;;;;;;;5.15;1.90;;;18.50;99.90;;;;;;5036324;28;20068;-81
2023/09/21 01:53:18;;;;;;;5.18;1.90;;;18.40;99.90;;;;;;5052446;28;20041;-81
2023/09/21 01:55:47;;;;;;;4.47;2.17;;;18.50;99.90;;;;;;5035654;28;20072;-81
2023/09/21 01:58:17;;;;;;;5.82;1.90;;;18.40;99.90;;;;;;5035732;28;20033;-81
2023/09/21 02:00:46;;;;;;;7.53;2.47;;;18.50;99.90;;;;;;5035956;28;20453;-81
2023/09/21 02:03:13;;;;;;;4.53;1.73;;;18.50;99.90;;;;;;5035681;28;20052;-81
2023/09/21 02:05:40;;;;;;;4.82;1.98;;;18.40;99.90;;;;;;5035811;28;20448;-81
2023/09/21 02:08:10;;;;;;;6.25;1.50;;;18.40;99.90;;;;;;5035000;28;20040;-80
2023/09/21 02:10:38;;;;;;;6.65;1.65;;;18.30;99.90;;;;;;5052187;28;20073;-80
2023/09/21 02:13:05;;;;;;;5.38;1.88;;;18.30;99.90;;;;;;5035748;28;20041;-80
2023/09/21 02:15:34;;;;;;;6.25;1.80;;;18.30;99.90;;;;;;5035289;28;20559;-81
2023/09/21 02:18:00;;;;;;;4.35;1.70;;;18.40;99.90;;;;;;5051988;28;20047;-81
2023/09/21 02:20:27;;;;;;;6.00;1.70;;;18.40;99.90;;;;;;5052007;28;20037;-81
2023/09/21 02:22:59;;;;;;;4.97;1.95;;;18.40;99.90;;;;;;5035343;28;20037;-81
2023/09/21 02:25:25;;;;;;;3.78;1.80;;;18.30;99.90;;;;;;5051854;28;20166;-82
2023/09/21 02:27:51;;;;;;;5.88;1.85;;;18.30;99.90;;;;;;5051894;28;20412;-81
2023/09/21 02:30:21;;;;;;;5.25;2.30;;;18.20;99.90;;;;;;5035228;28;20053;-81
2023/09/21 02:32:51;;;;;;;5.25;2.05;;;18.20;99.90;;;;;;5035548;28;20396;-81
2023/09/21 02:35:27;;;;;;;5.63;1.92;;;18.20;99.90;;;;;;5035153;28;20478;-82
2023/09/21 02:37:56;;;;;;;5.00;1.80;;;18.10;99.90;;;;;;5035411;28;20408;-81
2023/09/21 02:40:23;;;;;;;5.10;1.60;;;18.10;99.90;;;;;;5035202;28;20069;-80
2023/09/21 02:42:50;;;;;;;3.60;1.73;;;18.20;99.90;;;;;;5068443;28;20559;-80
2023/09/21 02:45:18;;;;;;;6.13;2.38;;;18.30;99.90;;;;;;5035073;28;20493;-80
2023/09/21 02:47:45;;;;;;;5.30;2.28;;;18.30;99.90;;;;;;5034989;28;20497;-80
2023/09/21 02:50:15;;;;;;;3.17;1.35;;;18.20;99.90;;;;;;5035035;28;20060;-79
2023/09/21 02:52:57;;;;;;;4.90;2.00;;;18.30;99.90;;;;;;5035094;28;20058;-80
2023/09/21 02:55:27;;;;;;;3.97;2.08;;;18.30;99.90;;;;;;5035118;28;20055;-80
2023/09/21 02:57:59;;;;;;;3.88;1.50;;;18.20;99.90;;;;;;5051576;28;20037;-80
2023/09/21 03:00:26;;;;;;;5.68;1.95;;;18.20;99.90;;;;;;5035012;28;20044;-81
2023/09/21 03:02:55;;;;;;;5.10;2.05;;;18.20;99.90;;;;;;5051825;28;20048;-80
2023/09/21 03:05:21;;;;;;;6.95;2.35;;;18.10;99.90;;;;;;5051567;28;20048;-81
2023/09/21 03:07:48;;;;;;;5.85;1.85;;;17.90;99.90;;;;;;5034858;28;20037;-81
2023/09/21 03:10:16;;;;;;;5.93;2.67;;;18.00;99.90;;;;;;5034797;28;20128;-81
2023/09/21 03:12:41;;;;;;;5.97;1.85;;;18.10;99.90;;;;;;5034937;28;20094;-81
2023/09/21 03:15:13;;;;;;;4.82;2.65;;;18.20;99.90;;;;;;5034719;28;20041;-81
2023/09/21 03:17:42;;;;;;;;;;;18.10;99.90;;;;;;5035194;28;20048;-81
2023/09/21 03:20:13;;;;;;;4.63;2.25;;;17.90;99.90;;;;;;5054066;28;19917;-81
2023/09/21 03:22:41;;;;;;;6.03;1.90;;;17.80;99.90;;;;;;5038657;28;20040;-81
2023/09/21 03:25:16;;;;;;;4.63;1.80;;;17.90;99.90;;;;;;5038523;28;20037;-80
2023/09/21 03:27:42;;;;;;;7.05;2.13;;;17.80;99.90;;;;;;5038495;28;20520;-81
2023/09/21 03:30:11;;;;;;;4.28;1.60;;;17.80;99.90;;;;;;5038351;28;20053;-80
2023/09/21 03:32:40;;;;;;;5.43;1.65;;;17.80;99.90;;;;;;5038685;28;20129;-80
2023/09/21 03:35:06;;;;;;;6.60;2.00;;;17.90;99.90;;;;;;5038289;28;20068;-81
2023/09/21 03:37:32;;;;;;;4.05;1.70;;;17.90;99.90;;;;;;5038316;28;20045;-81
2023/09/21 03:39:58;;;;;;;6.15;2.00;;;17.90;99.90;;;;;;5055092;28;20041;-80
2023/09/21 03:42:23;;;;;;;5.45;2.10;;;17.90;99.90;;;;;;5038376;28;20405;-80
2023/09/21 03:44:49;;;;;;;5.22;1.90;;;17.90;99.90;;;;;;5054915;28;20146;-80
2023/09/21 03:47:17;;;;;;;3.67;1.77;;;17.90;99.90;;;;;;5054895;28;20103;-80
2023/09/21 03:49:44;;;;;;;4.57;1.67;;;18.00;99.90;;;;;;5054760;28;20045;-81
2023/09/21 03:52:15;;;;;;;7.35;1.92;;;18.10;99.90;;;;;;5038152;28;20045;-81
2023/09/21 03:54:42;;;;;;;5.53;1.75;;;18.10;99.90;;;;;;5038295;28;20186;-81
2023/09/21 03:57:11;;;;;;;5.47;1.98;;;18.10;99.90;;;;;;5054828;28;20412;-81
2023/09/21 03:59:37;;;;;;;6.32;1.80;;;18.10;99.90;;;;;;5037923;28;20505;-81
2023/09/21 04:02:03;;;;;;;6.15;1.90;;;18.20;99.90;;;;;;5054517;28;20039;-81
2023/09/21 04:04:30;;;;;;;5.05;2.00;;;18.20;99.90;;;;;;5037887;28;20476;-81
2023/09/21 04:06:56;;;;;;;4.80;1.80;;;18.20;99.90;;;;;;5037736;28;20033;-81
2023/09/21 04:09:22;;;;;;;4.80;1.80;;;18.20;99.90;;;;;;5054371;28;20056;-81
2023/09/21 04:11:48;;;;;;;5.80;1.73;;;18.20;99.90;;;;;;5037736;28;20041;-81
2023/09/21 04:14:13;;;;;;;5.75;1.90;;;18.20;99.90;;;;;;5054508;28;20124;-81
2023/09/21 04:16:39;;;;;;;4.53;1.80;;;18.10;99.90;;;;;;5037831;28;20041;-81
2023/09/21 04:19:10;;;;;;;4.55;1.80;;;18.10;99.90;;;;;;5037592;28;20029;-81
2023/09/21 04:21:36;;;;;;;4.38;1.63;;;18.10;99.90;;;;;;5037894;28;20528;-81
2023/09/21 04:24:02;;;;;;;4.90;1.80;;;18.10;99.90;;;;;;5037809;28;20036;-80
2023/09/21 04:26:28;;;;;;;5.90;2.13;;;18.00;99.90;;;;;;5054220;28;20059;-81
2023/09/21 04:28:55;;;;;;;5.32;2.30;;;18.00;99.90;;;;;;5037519;28;20107;-80
2023/09/21 04:31:21;;;;;;;5.82;1.70;;;17.90;99.90;;;;;;5036768;28;20516;-81
2023/09/21 04:33:47;;;;;;;5.82;2.53;;;17.90;99.90;;;;;;5054190;28;20048;-80
2023/09/21 04:36:12;;;;;;;5.45;2.08;;;18.10;99.90;;;;;;5037275;28;20041;-80
2023/09/21 04:38:38;;;;;;;4.22;1.85;;;18.00;99.90;;;;;;5037158;28;20033;-80
2023/09/21 04:41:04;;;;;;;4.93;2.83;;;18.10;99.90;;;;;;5037332;28;20098;-80
2023/09/21 04:43:32;;;;;;;3.72;1.80;;;18.10;99.90;;;;;;5053780;28;20120;-80
2023/09/21 04:45:59;;;;;;;5.20;1.80;;;18.10;99.90;;;;;;5037106;28;20033;-80
2023/09/21 04:48:25;;;;;;;4.97;1.90;;;18.00;99.90;;;;;;5053768;28;20460;-80
2023/09/21 04:50:51;;;;;;;3.47;1.75;;;18.00;99.90;;;;;;5037338;28;20128;-80
2023/09/21 04:53:16;;;;;;;5.75;2.20;;;18.00;99.90;;;;;;5036945;28;20098;-80
2023/09/21 04:55:42;;;;;;;7.35;1.95;;;18.10;99.90;;;;;;5036917;28;20390;-80
2023/09/21 04:58:08;;;;;;;4.68;1.80;;;18.00;99.90;;;;;;5037182;28;20039;-80
2023/09/21 05:00:33;;;;;;;5.43;2.10;;;17.90;99.90;;;;;;5037050;28;20536;-80
2023/09/21 05:02:59;;;;;;;4.93;1.80;;;17.90;99.90;;;;;;5053456;28;20071;-80
2023/09/21 05:05:26;;;;;;;5.53;1.90;;;17.90;99.90;;;;;;5053435;28;20474;-81
2023/09/21 05:07:55;;;;;;;6.32;2.30;;;17.90;99.90;;;;;;5036907;28;20513;-80
2023/09/21 05:10:20;;;;;;;4.60;2.10;;;17.90;99.90;;;;;;5053278;28;20076;-81
2023/09/21 05:12:51;;;;;;;3.88;1.90;;;17.80;99.90;;;;;;5036931;28;20470;-80
2023/09/21 05:15:17;;;;;;;5.87;1.90;;;17.90;99.90;;;;;;5053103;28;20107;-81
2023/09/21 05:17:43;;;;;;;4.35;1.70;;;17.90;99.90;;;;;;5036491;28;20048;-81
2023/09/21 05:20:09;;;;;;;5.10;1.75;;;17.90;99.90;;;;;;5036443;28;20037;-81
2023/09/21 05:22:35;;;;;;;4.22;1.80;;;17.90;99.90;;;;;;5036353;28;20037;-80
2023/09/21 05:25:03;;;;;;;3.33;1.60;;;18.00;99.90;;;;;;5036615;28;20097;-81
2023/09/21 05:27:31;;;;;;;4.00;1.88;;;18.00;99.90;;;;;;5053110;28;20045;-81
2023/09/21 05:30:01;;;;;;;4.93;1.73;;;18.00;99.90;;;;;;5036176;28;20061;-80
2023/09/21 05:32:29;;;;;;;5.30;1.73;;;18.10;99.90;;;;;;5053056;28;20045;-80
2023/09/21 05:34:56;;;;;;;4.22;1.90;;;18.10;99.90;;;;;;5036094;28;20048;-81
2023/09/21 05:37:23;;;;;;;4.90;2.05;;;18.10;99.90;;;;;;5036376;28;20045;-81
2023/09/21 05:39:49;;;;;;;4.20;1.90;;;18.10;99.90;;;;;;5036140;28;20047;-81
2023/09/21 05:42:18;;;;;;;5.25;1.85;;;18.10;99.90;;;;;;5035167;28;20043;-81
2023/09/21 05:44:44;;;;;;;5.38;1.95;;;18.10;99.90;;;;;;5035983;28;20095;-81
2023/09/21 05:47:10;;;;;;;6.00;2.05;;;18.10;99.90;;;;;;5035954;28;20037;-81
2023/09/21 05:49:37;;;;;;;6.05;2.00;;;18.10;99.90;;;;;;5035817;28;20037;-81
2023/09/21 05:52:08;;;;;;;5.85;2.10;;;18.10;99.90;;;;;;5052456;28;20044;-81
2023/09/21 05:54:35;;;;;;;5.07;2.27;;;18.20;99.90;;;;;;5052350;28;20056;-81
2023/09/21 05:57:03;;;;;;;4.07;1.70;;;18.20;99.90;;;;;;5035879;28;20318;-81
2023/09/21 05:59:31;;;;;;;5.25;1.90;;;18.30;99.90;;;;;;5035933;28;20389;-81
2023/09/21 06:01:57;;;;;;;4.35;2.05;;;18.30;99.90;;;;;;5035991;28;20474;-81
2023/09/21 06:04:24;;;;;;;5.20;1.80;;;18.30;99.90;;;;;;5035541;28;20037;-80
2023/09/21 06:06:51;;;;;;;4.55;1.80;;;18.40;99.90;;;;;;5035863;28;20052;-81
2023/09/21 06:09:20;;;;;;;4.57;1.83;;;18.40;99.90;;;;;;5035737;28;20103;-81
2023/09/21 06:11:49;;;;;;;6.85;1.95;;;18.50;99.90;;;;;;5035547;28;20163;-81
2023/09/21 06:14:15;;;;;;;4.65;1.90;;;18.50;99.90;;;;;;5052099;28;20069;-81
2023/09/21 06:16:42;;;;;;;4.47;1.95;;;18.50;99.90;;;;;;5052377;28;20102;-81
2023/09/21 06:19:09;;;;;;;6.72;2.30;;;18.40;99.90;;;;;;5035447;28;20047;-81
2023/09/21 06:21:35;;;;;;;5.93;1.88;;;18.40;99.90;;;;;;5035771;28;20064;-81
2023/09/21 06:24:03;;;;;;;4.50;1.80;;;18.40;99.90;;;;;;5052239;28;20040;-81
2023/09/21 06:26:29;;;;;;;4.55;1.98;;;18.50;99.90;;;;;;5035655;28;20062;-81
2023/09/21 06:28:55;;;;;;;6.88;1.77;;;18.40;99.90;;;;;;5051659;28;20045;-81
2023/09/21 06:31:21;;;;;;;5.78;1.88;;;18.50;99.90;;;;;;5051913;28;20463;-80
2023/09/21 06:33:47;;;;;;;4.80;1.50;;;18.50;99.90;;;;;;5035225;28;20090;-82
2023/09/21 06:36:20;;;;;;;5.75;1.75;;;18.50;99.90;;;;;;5051790;28;20045;-81
2023/09/21 06:38:50;;;;;;;4.57;1.67;;;18.50;99.90;;;;;;5035096;28;20040;-81
2023/09/21 06:41:16;;;;;;;6.25;1.98;;;18.60;99.90;;;;;;5035170;28;20503;-81
2023/09/21 06:43:42;;;;;;;4.07;1.70;;;18.70;99.90;;;;;;5051669;28;20037;-81
2023/09/21 06:46:11;;;;;;;6.57;2.00;;;18.70;99.90;;;;;;5035206;28;20041;-81
2023/09/21 06:48:38;;;;;;;6.65;1.90;;;18.60;99.90;;;;;;5035046;28;20037;-81
2023/09/21 06:51:04;;;;;;;5.38;1.98;;;18.60;99.90;;;;;;5051665;28;20091;-81
2023/09/21 06:53:31;;;;;;;5.45;1.90;;;18.60;99.90;;;;;;5036745;28;20041;-81
2023/09/21 06:55:58;;;;;;;5.32;2.03;;;18.60;99.90;;;;;;5055743;28;20477;-81
2023/09/21 06:58:24;;;;;;;5.82;2.10;;;18.60;99.90;;;;;;5039283;28;20029;-81
2023/09/21 07:00:50;;;;;;;5.47;2.00;;;18.60;99.90;;;;;;5039126;28;20036;-81
2023/09/21 07:03:17;;;;;;;6.13;1.95;;;18.50;99.90;;;;;;5039002;28;20091;-81
2023/09/21 07:05:44;;;;;;;5.22;2.28;;;18.50;99.90;;;;;;5038881;28;20041;-81
2023/09/21 07:08:13;;;;;;;6.85;2.17;;;18.50;99.90;;;;;;5039178;28;20041;-81
2023/09/21 07:10:38;;;;;;;6.63;2.13;;;18.50;99.90;;;;;;5055479;28;20049;-81
2023/09/21 07:13:05;;;;;;;6.45;2.25;;;18.50;99.90;;;;;;5038925;28;20037;-80
2023/09/21 07:15:30;;;;;;;4.85;2.05;;;18.50;99.90;;;;;;5055339;28;20049;-80
2023/09/21 07:17:56;;;;;;;5.45;2.03;;;18.50;99.90;;;;;;5038557;28;20044;-81
2023/09/21 07:20:26;;;;;;;5.57;2.10;;;18.50;99.90;;;;;;5038686;28;20048;-81
2023/09/21 07:22:55;;;;;;;6.75;2.03;;;18.50;99.90;;;;;;5055296;28;20048;-81
2023/09/21 07:25:22;;;;;;;5.15;2.00;;;18.50;99.90;;;;;;5055527;28;20405;-81
2023/09/21 07:27:51;;;;;;;5.10;2.00;;;18.50;99.90;;;;;;5038548;28;20041;-81
2023/09/21 07:30:18;;;;;;;6.68;2.22;;;18.50;99.90;;;;;;5038818;28;20045;-81
2023/09/21 07:32:43;;;;;;;6.97;2.17;;;18.40;99.90;;;;;;5038747;28;20374;-81
2023/09/21 07:35:09;;;;;;;5.50;2.30;;;18.40;99.90;;;;;;5038437;28;20071;-80
2023/09/21 07:37:35;;;;;;;7.50;2.22;;;18.40;99.90;;;;;;5038455;28;20408;-81
2023/09/21 07:40:06;;;;;;;6.20;2.30;;;18.40;99.90;;;;;;5038314;28;20040;-81
2023/09/21 07:42:35;;;;;;;6.53;2.25;;;18.40;99.90;;;;;;5038437;28;20041;-82
2023/09/21 07:45:01;;;;;;;5.00;1.95;;;18.40;99.90;;;;;;5038171;28;20493;-82
2023/09/21 07:47:26;;;;;;;4.82;2.00;;;18.40;99.90;;;;;;5038515;28;20433;-82
2023/09/21 07:49:55;;;;;;;5.22;1.88;;;18.40;99.90;;;;;;5038042;28;20101;-82
2023/09/21 07:52:23;;;;;;;6.10;2.10;;;18.40;99.90;;;;;;5038097;28;20052;-82
2023/09/21 07:54:50;;;;;;;6.22;2.22;;;18.50;99.90;;;;;;5054540;28;20049;-82
2023/09/21 07:57:16;;;;;;;5.43;2.38;;;18.50;99.90;;;;;;5038125;28;20033;-82
2023/09/21 07:59:45;;;;;;;6.43;2.20;;;18.50;99.90;;;;;;5054404;28;20120;-82
2023/09/21 08:02:12;;;;;;;6.35;2.20;;;18.50;99.90;;;;;;5038180;28;20068;-82
2023/09/21 08:04:38;;;;;;;5.90;2.45;;;18.50;99.90;;;;;;5037042;28;20080;-82
2023/09/21 08:07:05;;;;;;;5.30;2.25;;;18.70;99.90;;;;;;5037963;28;20040;-82
2023/09/21 08:09:31;;;;;;;4.63;2.08;;;18.60;99.90;;;;;;5054565;28;20127;-81
2023/09/21 08:11:57;;;;;;;6.53;2.20;;;18.60;99.90;;;;;;5037808;28;20627;-82
2023/09/21 08:14:25;;;;;;;4.57;1.80;;;18.60;99.90;;;;;;5054235;28;20124;-82
2023/09/21 08:16:55;;;;;;;6.18;2.15;;;18.60;99.90;;;;;;5037643;28;20037;-82
2023/09/21 08:19:21;;;;;;;5.50;1.85;;;18.60;99.90;;;;;;5054211;28;20040;-82
2023/09/21 08:21:48;;;;;;;7.75;2.22;;;18.60;99.90;;;;;;5054150;28;20049;-82
2023/09/21 08:24:13;;;;;;;7.30;2.30;;;18.60;99.90;;;;;;5054194;28;20068;-82
2023/09/21 08:26:40;;;;;;;5.03;2.28;;;18.50;99.90;;;;;;5054322;28;20096;-82
2023/09/21 08:29:06;;;;;;;8.07;2.42;;;18.60;99.90;;;;;;5037204;28;20061;-82
2023/09/21 08:31:32;;;;;;;8.15;2.65;;;18.50;99.90;;;;;;5053944;28;20047;-82
2023/09/21 08:33:59;;;;;;;5.40;2.40;;;18.50;99.90;;;;;;5037343;28;20041;-82
2023/09/21 08:36:25;;;;;;;4.20;2.13;;;18.50;99.90;;;;;;5037334;28;20076;-82
2023/09/21 08:38:50;;;;;;;5.13;2.33;;;18.60;99.90;;;;;;5037284;28;20068;-82
2023/09/21 08:41:16;;;;;;;6.45;2.30;;;18.60;99.90;;;;;;5037391;28;20134;-82
2023/09/21 08:43:43;;;;;;;5.32;2.45;;;18.60;99.90;;;;;;5037442;28;20045;-82
2023/09/21 08:46:11;;;;;;;6.75;2.47;;;18.60;99.90;;;;;;5037153;28;20085;-82
2023/09/21 08:48:39;;;;;;;6.05;2.80;;;18.50;99.90;;;;;;5037382;28;20374;-82
2023/09/21 08:51:15;;;;;;;7.22;2.40;;;18.60;99.90;;;;;;5053575;28;20049;-82
2023/09/21 08:53:41;;;;;;;5.20;2.13;;;18.60;99.90;;;;;;5037045;28;20086;-82
2023/09/21 08:56:08;;;;;;;8.10;2.22;;;18.50;99.90;;;;;;5036834;28;20041;-82
2023/09/21 08:58:40;;;;;;;4.32;2.15;;;18.50;99.90;;;;;;5036941;28;20045;-82
2023/09/21 09:01:07;;;;;;;7.68;2.70;;;18.40;99.90;;;;;;5053457;28;20033;-83
2023/09/21 09:03:33;;;;;;;5.75;2.38;;;18.40;99.90;;;;;;5036744;28;20029;-82
2023/09/21 09:05:59;;;;;;;7.07;2.50;;;18.40;99.90;;;;;;5053351;28;20048;-82
2023/09/21 09:08:25;;;;;;;8.25;2.60;;;18.30;99.90;;;;;;5053232;28;20401;-82
2023/09/21 09:10:53;;;;;;;7.55;2.50;;;18.30;99.90;;;;;;5036641;28;20501;-82
2023/09/21 09:13:32;;;;;;;6.97;2.70;;;18.30;99.90;;;;;;5036655;28;20041;-82
2023/09/21 09:16:01;;;;;;;7.35;2.42;;;18.20;99.90;;;;;;5036404;28;20497;-82
2023/09/21 09:18:30;;;;;;;7.38;2.80;;;18.20;99.90;;;;;;5053398;28;20393;-82
2023/09/21 09:20:56;;;;;;;8.07;2.97;;;18.20;99.90;;;;;;5036377;28;20106;-81
2023/09/21 09:23:21;;;;;;;7.55;2.50;;;18.10;99.90;;;;;;5053050;28;20386;-82
2023/09/21 09:25:51;;;;;;;4.97;2.15;;;18.10;99.90;;;;;;5053074;28;20050;-82
2023/09/21 09:28:17;;;;;;;4.35;2.40;;;18.10;99.90;;;;;;5053042;28;20040;-81
2023/09/21 09:30:45;;;;;;;6.07;2.60;;;18.10;99.90;;;;;;5052869;28;20072;-82
2023/09/21 09:33:15;;;;;;;6.22;2.53;;;18.10;99.90;;;;;;5036234;28;20509;-81
2023/09/21 09:35:45;;;;;;;5.60;2.40;;;18.10;99.90;;;;;;5036118;28;20041;-82
2023/09/21 09:38:11;;;;;;;6.72;2.83;;;18.00;99.90;;;;;;5052816;28;20118;-82
2023/09/21 09:40:37;;;;;;;6.55;2.58;;;18.00;99.90;;;;;;5036031;28;20091;-82
2023/09/21 09:43:07;;;;;;;6.28;2.65;;;18.00;99.90;;;;;;5036054;28;20548;-82
2023/09/21 09:45:37;;;;;;;4.93;2.38;;;18.00;99.90;;;;;;5036146;28;20043;-82
2023/09/21 09:48:11;;;;;;;5.55;2.47;;;18.00;99.90;;;;;;5052590;28;20124;-82
2023/09/21 09:50:41;;;;;;;4.72;2.42;;;17.90;99.90;;;;;;5035860;28;20040;-81
2023/09/21 09:53:10;;;;;;;6.82;2.70;;;18.00;99.90;;;;;;5052484;28;20604;-82
2023/09/21 09:55:37;;;;;;;7.93;3.17;;;18.00;99.90;;;;;;5035865;28;20041;-82
2023/09/21 09:58:03;;;;;;;6.10;2.90;;;18.00;99.90;;;;;;5035830;28;20041;-82
2023/09/21 10:00:30;;;;;;;6.47;2.95;;;17.90;99.90;;;;;;5035631;28;20041;-81
2023/09/21 10:02:57;;;;;;;5.45;2.67;;;17.90;99.90;;;;;;5035831;28;20041;-82
2023/09/21 10:05:26;;;;;;;4.28;2.17;;;17.70;99.90;;;;;;5069210;28;20053;-82
2023/09/21 10:07:54;;;;;;;2.83;1.30;;;17.60;99.90;;;;;;5035724;28;20048;-82
2023/09/21 10:10:22;;;;;;;3.25;1.30;;;17.60;99.90;;;;;;5035527;28;20048;-81
2023/09/21 10:12:52;;;;;;;2.25;1.05;;;17.50;99.90;;;;;;5052153;28;20036;-81
2023/09/21 10:15:22;;;;;;;7.38;1.35;;;17.40;99.90;;;;;;5035385;28;20520;-82
2023/09/21 10:17:50;;;;;;;4.28;1.10;;;17.40;99.90;;;;;;5035748;28;20428;-82
2023/09/21 10:20:25;;;;;;;2.78;1.00;;;17.40;99.90;;;;;;5052195;28;20037;-82
2023/09/21 10:22:52;;;;;;;2.08;1.10;;;17.40;99.90;;;;;;5035488;28;20045;-82
2023/09/21 10:25:35;;;;;;;2.67;0.90;;;17.30;99.90;;;;;;5035418;28;20047;-82
2023/09/21 10:28:20;;;;;;;1.63;0.75;;;17.40;99.90;;;;;;5034838;28;20486;-81
2023/09/21 10:30:51;;;;;;;2.47;0.80;;;17.30;99.90;;;;;;5035327;28;20076;-82
2023/09/21 10:33:18;;;;;;;2.63;0.70;;;17.30;99.90;;;;;;5035273;28;20564;-82
2023/09/21 10:35:45;;;;;;;1.63;0.80;;;17.30;99.90;;;;;;5051806;28;20076;-82
2023/09/21 10:38:16;;;;;;;2.78;0.68;;;17.20;99.90;;;;;;5035187;28;20481;-82
2023/09/21 10:40:42;;;;;;;3.33;0.95;;;17.20;99.90;;;;;;5051718;28;20047;-82
2023/09/21 10:43:39;;;;;;;2.58;0.70;;;17.20;99.90;;;;;;5035177;28;20119;-82
2023/09/21 10:46:21;;;;;;;1.90;1.00;;;17.20;99.90;;;;;;5035411;28;20044;-82
2023/09/21 10:49:08;;;;;;;1.90;1.02;;;17.20;99.90;;;;;;5035120;28;20048;-82
2023/09/21 10:51:39;;;;;;;2.00;0.73;;;17.20;99.90;;;;;;5035084;28;20072;-82
2023/09/21 10:54:06;;;;;;;1.42;0.70;;;17.20;99.90;;;;;;5051810;28;20041;-82
2023/09/21 10:56:36;;;;;;;2.75;0.90;;;17.10;99.90;;;;;;5035032;28;20041;-82
2023/09/21 10:59:02;;;;;;;2.10;0.82;;;17.10;99.90;;;;;;5051672;28;20048;-82
2023/09/21 11:01:28;;;;;;;2.17;0.80;;;17.20;99.90;;;;;;5051469;28;20037;-82
2023/09/21 11:03:54;;;;;;;2.15;0.80;;;17.10;99.90;;;;;;5035003;28;20498;-82
2023/09/21 11:06:20;;;;;;;1.50;0.75;;;17.20;99.90;;;;;;5051548;28;20040;-82
2023/09/21 11:08:49;;;;;;;1.50;0.70;;;17.20;99.90;;;;;;5051844;28;20036;-82
2023/09/21 11:11:16;;;;;;;2.65;0.90;;;17.10;99.90;;;;;;5051373;28;20045;-82
2023/09/21 11:13:42;;;;;;;4.03;0.98;;;17.10;99.90;;;;;;5034876;28;20094;-82
2023/09/21 11:16:13;;;;;;;1.38;0.80;;;17.20;99.90;;;;;;5051421;28;20048;-82
2023/09/21 11:18:40;;;;;;;1.58;0.75;;;17.10;99.90;;;;;;5034948;28;20037;-82
2023/09/21 11:21:10;;;;;;;1.38;0.80;;;17.10;99.90;;;;;;5068163;28;20516;-82
2023/09/21 11:23:36;;;;;;;1.98;0.82;;;17.00;99.90;;;;;;5035261;28;20449;-82
2023/09/21 11:26:05;;;;;;;2.13;0.88;;;16.90;99.90;;;;;;5034870;28;20048;-82
2023/09/21 11:28:32;;;;;;;2.15;0.80;;;17.00;99.90;;;;;;5051284;28;20151;-82
2023/09/21 11:30:58;;;;;;;2.97;1.13;;;17.00;99.90;;;;;;5068061;28;20489;-82
2023/09/21 11:33:27;;;;;;;1.75;0.90;;;16.80;99.90;;;;;;5051348;28;20127;-82
2023/09/21 11:35:52;;;;;;;1.48;0.63;;;16.80;99.90;;;;;;5034650;28;20055;-82
2023/09/21 11:38:20;;;;;;;1.85;0.75;;;16.90;99.90;;;;;;5034942;28;20033;-82
2023/09/21 11:40:49;;;;;;;1.25;0.70;;;16.80;99.90;;;;;;5036680;28;20037;-82
2023/09/21 11:43:16;;;;;;;4.72;2.10;;;16.80;99.90;;;;;;5038626;28;20472;-82
2023/09/21 11:45:48;;;;;;;2.47;0.80;;;16.90;99.90;;;;;;5038354;28;20132;-81
2023/09/21 11:48:15;;;;;;;4.43;0.90;;;16.90;99.90;;;;;;5054977;28;20037;-81
2023/09/21 11:50:44;;;;;;;0.80;0.60;;;16.90;99.90;;;;;;5054888;28;20045;-82
2023/09/21 11:53:09;;;;;;;1.67;0.77;;;16.90;99.90;;;;;;5054708;28;20041;-82
2023/09/21 11:55:38;;;;;;;1.20;0.70;;;16.90;99.90;;;;;;5054622;28;20045;-82
2023/09/21 11:58:14;;;;;;;1.60;0.63;;;17.00;99.90;;;;;;5054764;28;20076;-81
2023/09/21 12:00:51;;;;;;;1.10;0.63;;;17.00;99.90;;;;;;5054965;28;20033;-82
2023/09/21 12:03:21;;;;;;;2.67;0.85;;;17.00;99.90;;;;;;5038276;28;20059;-82
2023/09/21 12:05:47;;;;;;;0.82;0.65;;;16.90;99.90;;;;;;5054695;28;20052;-82
2023/09/21 12:08:14;;;;;;;1.27;0.63;;;16.90;99.90;;;;;;5054569;28;20079;-82
2023/09/21 12:10:47;;;;;;;1.60;0.80;;;16.90;99.90;;;;;;5054784;28;20525;-82
2023/09/21 12:13:13;;;;;;;1.15;0.70;;;16.80;99.90;;;;;;5037708;28;20045;-81
2023/09/21 12:15:40;;;;;;;1.02;0.60;;;16.80;99.90;;;;;;5037685;28;20053;-82
2023/09/21 12:18:07;;;;;;;1.10;0.70;;;16.60;99.90;;;;;;5037763;28;20048;-82
2023/09/21 12:20:33;;;;;;;2.67;0.70;;;16.60;99.90;;;;;;5037688;28;20079;-81
2023/09/21 12:22:59;;;;;;;3.35;0.90;;;16.60;99.90;;;;;;5037858;28;20102;-82
2023/09/21 12:25:24;;;;;;;2.47;1.13;;;16.60;99.90;;;;;;5037575;28;20500;-82
2023/09/21 12:27:50;;;;;;;4.30;0.93;;;16.60;99.90;;;;;;5054382;28;20056;-82
2023/09/21 12:30:17;;;;;;;1.95;0.90;;;16.60;99.90;;;;;;5037399;28;20417;-82
2023/09/21 12:32:43;;;;;;;1.27;0.80;;;16.60;99.90;;;;;;5037294;28;20048;-82
2023/09/21 12:35:10;;;;;;;1.20;0.73;;;16.60;99.90;;;;;;5053950;28;20041;-82
2023/09/21 12:37:37;;;;;;;2.35;0.90;;;16.60;99.90;;;;;;5053939;28;20076;-82
2023/09/21 12:40:11;;;;;;;1.85;1.02;;;16.60;99.90;;;;;;5054003;28;20040;-82
2023/09/21 12:42:39;;;;;;;2.45;0.90;;;16.70;99.90;;;;;;5053785;28;20075;-82
2023/09/21 12:45:07;;;;;;;2.28;0.95;;;16.70;99.90;;;;;;5054118;28;20037;-82
2023/09/21 12:47:33;;;;;;;2.88;1.00;;;16.70;99.90;;;;;;5037447;28;20397;-82
2023/09/21 12:50:00;;;;;;;1.40;0.80;;;16.70;99.90;;;;;;5053765;28;20041;-82
2023/09/21 12:52:29;;;;;;;2.03;0.80;;;16.70;99.90;;;;;;5036611;28;20037;-82